Schedule Details

Flight Number: ASX321X
Departure: Athens (LGAV) at 17:00Z
Arrival: Gdansk im. Lecha Walesy (EPGD) at 20:00Z

Weather Information
LGAV 272250Z 01009KT 9999 FEW030 21/14 Q1017 NOSIG
EPGD 272230Z 06005KT 030V090 CAVOK 16/15 Q1025

Schedule Frequency

Route Map